createdAt,value
2023-01-13T00:02:23.331Z,8.10
2023-01-13T00:04:50.091Z,8.00
2023-01-13T00:07:16.911Z,8.70
2023-01-13T00:09:43.697Z,7.50
2023-01-13T00:12:10.459Z,8.10
2023-01-13T00:14:37.161Z,8.20
2023-01-13T00:17:04.173Z,8.50
2023-01-13T00:19:30.851Z,8.40
2023-01-13T00:21:57.709Z,8.70
2023-01-13T00:24:24.551Z,8.10
2023-01-13T00:26:52.760Z,8.60
2023-01-13T00:29:19.595Z,7.40
2023-01-13T00:31:46.332Z,8.20
2023-01-13T00:34:13.081Z,8.90
2023-01-13T00:36:39.991Z,8.30
2023-01-13T00:39:06.830Z,8.00
2023-01-13T00:41:53.529Z,7.90
2023-01-13T00:44:20.399Z,8.70
2023-01-13T00:46:47.146Z,8.80
2023-01-13T00:49:14.268Z,9.00
2023-01-13T00:51:41.009Z,9.00
2023-01-13T00:54:08.011Z,9.00
2023-01-13T00:56:40.278Z,9.60
2023-01-13T00:59:10.530Z,9.80
2023-01-13T01:01:37.411Z,9.20
2023-01-13T01:04:04.247Z,9.90
2023-01-13T01:06:31.080Z,9.40
2023-01-13T01:08:58.052Z,9.40
2023-01-13T01:11:26.841Z,9.30
2023-01-13T01:13:54.828Z,9.60
2023-01-13T01:16:22.913Z,9.50
2023-01-13T01:18:50.493Z,9.70
2023-01-13T01:21:17.559Z,9.80
2023-01-13T01:23:44.412Z,9.40
2023-01-13T01:26:13.453Z,9.80
2023-01-13T01:28:40.275Z,9.80
2023-01-13T01:31:08.268Z,9.80
2023-01-13T01:33:35.019Z,9.50
2023-01-13T01:36:02.535Z,9.70
2023-01-13T01:38:29.310Z,9.60
2023-01-13T01:40:56.063Z,9.20
2023-01-13T01:43:42.559Z,9.30
2023-01-13T01:46:09.337Z,9.20
2023-01-13T01:48:38.544Z,9.70
2023-01-13T01:51:05.417Z,9.50
2023-01-13T01:53:32.099Z,9.90
2023-01-13T01:55:58.843Z,9.90
2023-01-13T01:58:31.191Z,10.20
2023-01-13T02:00:58.447Z,10.50
2023-01-13T02:03:25.329Z,10.30
2023-01-13T02:05:52.073Z,10.50
2023-01-13T02:08:18.914Z,10.60
2023-01-13T02:10:46.678Z,10.60
2023-01-13T02:13:13.521Z,10.20
2023-01-13T02:16:11.195Z,10.00
2023-01-13T02:18:45.211Z,9.90
2023-01-13T02:21:42.832Z,10.00
2023-01-13T02:24:37.661Z,9.90
2023-01-13T02:27:29.487Z,10.00
2023-01-13T02:30:34.357Z,9.70
2023-01-13T02:33:34.497Z,9.40
2023-01-13T02:36:27.374Z,9.50
2023-01-13T02:38:59.685Z,9.70
2023-01-13T02:41:47.748Z,9.80
2023-01-13T02:44:14.562Z,10.20
2023-01-13T02:46:44.589Z,9.40
2023-01-13T02:49:14.833Z,10.10
2023-01-13T02:51:41.544Z,9.90
2023-01-13T02:54:13.913Z,9.60
2023-01-13T02:56:43.209Z,10.20
2023-01-13T02:59:09.959Z,9.40
2023-01-13T03:01:36.972Z,9.80
2023-01-13T03:04:13.852Z,9.60
2023-01-13T03:07:04.013Z,9.90
2023-01-13T03:09:39.855Z,9.70
2023-01-13T03:12:12.569Z,9.40
2023-01-13T03:14:42.103Z,9.60
2023-01-13T03:17:22.601Z,10.10
2023-01-13T03:20:05.323Z,9.30
2023-01-13T03:22:33.416Z,9.60
2023-01-13T03:25:23.237Z,10.40
2023-01-13T03:28:08.355Z,9.70
2023-01-13T03:30:41.122Z,9.50
2023-01-13T03:33:30.416Z,9.50
2023-01-13T03:36:03.391Z,10.20
2023-01-13T03:38:44.801Z,9.60
2023-01-13T03:41:15.808Z,9.70
2023-01-13T03:44:06.420Z,10.30
2023-01-13T03:46:41.658Z,9.30
2023-01-13T03:49:08.322Z,10.30
2023-01-13T03:51:36.047Z,9.40
2023-01-13T03:54:05.223Z,9.70
2023-01-13T03:56:46.531Z,10.30
2023-01-13T03:59:22.286Z,10.00
2023-01-13T04:02:04.158Z,10.50
2023-01-13T04:04:36.970Z,10.50
2023-01-13T04:07:16.908Z,9.80
2023-01-13T04:09:51.159Z,9.70
2023-01-13T04:13:04.363Z,10.50
2023-01-13T04:15:36.543Z,10.30
2023-01-13T04:18:11.623Z,10.60
2023-01-13T04:20:39.823Z,11.10
2023-01-13T04:23:06.681Z,11.00
2023-01-13T04:25:34.243Z,10.60
2023-01-13T04:28:01.267Z,10.80
2023-01-13T04:30:28.002Z,10.80
2023-01-13T04:32:55.071Z,11.50
2023-01-13T04:35:21.737Z,11.30
2023-01-13T04:37:48.656Z,10.40
2023-01-13T04:40:15.419Z,11.20
2023-01-13T04:42:44.285Z,10.70
2023-01-13T04:45:11.506Z,10.60
2023-01-13T04:47:38.491Z,10.60
2023-01-13T04:50:05.351Z,10.70
2023-01-13T04:52:32.071Z,10.90
2023-01-13T04:54:58.796Z,10.40
2023-01-13T04:57:26.165Z,10.80
2023-01-13T04:59:52.878Z,10.50
2023-01-13T05:02:22.529Z,11.00
2023-01-13T05:04:49.345Z,11.10
2023-01-13T05:07:16.592Z,10.00
2023-01-13T05:09:43.252Z,10.30
2023-01-13T05:12:29.323Z,10.90
2023-01-13T05:15:14.808Z,10.30
2023-01-13T05:17:41.542Z,10.40
2023-01-13T05:20:09.072Z,10.40
2023-01-13T05:22:54.563Z,10.40
2023-01-13T05:25:28.416Z,10.00
2023-01-13T05:30:24.506Z,9.90
2023-01-13T05:32:51.268Z,9.30
2023-01-13T05:35:18.235Z,9.50
2023-01-13T05:37:45.160Z,9.90
2023-01-13T05:40:31.780Z,9.60
2023-01-13T05:43:20.423Z,9.40
2023-01-13T05:45:47.806Z,9.30
2023-01-13T05:48:14.573Z,9.60
2023-01-13T05:50:41.283Z,9.50
2023-01-13T05:53:07.978Z,9.60
2023-01-13T05:55:34.767Z,9.60
2023-01-13T05:58:01.475Z,9.30
2023-01-13T06:00:28.290Z,9.40
2023-01-13T06:02:55.028Z,9.30
2023-01-13T06:05:21.796Z,8.90
2023-01-13T06:07:48.409Z,9.40
2023-01-13T10:31:56.440Z,7.40
2023-01-13T10:34:23.976Z,8.20
2023-01-13T10:37:08.207Z,8.40
2023-01-13T10:42:14.005Z,7.60
2023-01-13T10:44:47.301Z,8.50
2023-01-13T10:47:28.199Z,7.40
2023-01-13T10:50:18.571Z,8.90
2023-01-13T10:53:16.270Z,8.70
2023-01-13T10:55:44.076Z,8.40
2023-01-13T10:58:21.016Z,8.90
2023-01-13T11:00:48.906Z,8.90
2023-01-13T11:03:21.784Z,8.50
2023-01-13T11:05:56.416Z,9.00
2023-01-13T11:08:31.428Z,8.50
2023-01-13T11:10:59.088Z,8.70
2023-01-13T11:13:57.919Z,8.80
2023-01-13T11:16:24.627Z,8.90
2023-01-13T11:19:02.638Z,8.90
2023-01-13T11:21:34.902Z,8.50
2023-01-13T11:24:06.685Z,8.90
2023-01-13T11:26:45.079Z,9.10
2023-01-13T11:29:17.984Z,9.40
2023-01-13T11:31:49.567Z,9.50
2023-01-13T11:34:31.113Z,9.80
2023-01-13T11:36:58.963Z,9.70
2023-01-13T11:39:44.373Z,9.40
2023-01-13T11:42:46.511Z,9.70
2023-01-13T11:45:41.070Z,9.40
2023-01-13T11:48:10.673Z,9.70
2023-01-13T11:50:56.319Z,9.50
2023-01-13T11:53:52.957Z,9.50
2023-01-13T11:56:41.396Z,9.50
2023-01-13T11:59:32.647Z,9.40
2023-01-13T12:02:22.867Z,9.50
2023-01-13T12:04:52.694Z,9.00
2023-01-13T12:07:53.765Z,9.40
2023-01-13T12:10:30.128Z,9.70
2023-01-13T12:13:02.353Z,9.50
2023-01-13T12:15:52.968Z,10.10
2023-01-13T12:18:29.068Z,9.70
2023-01-13T12:21:14.147Z,9.60
2023-01-13T12:23:46.926Z,10.10
2023-01-13T12:26:18.584Z,10.10
2023-01-13T12:28:52.916Z,9.80
2023-01-13T12:31:19.736Z,10.30
2023-01-13T12:34:05.519Z,10.20
2023-01-13T12:36:52.723Z,10.10
2023-01-13T12:39:30.346Z,10.30
2023-01-13T12:42:19.295Z,9.80
2023-01-13T12:45:06.126Z,10.20
2023-01-13T12:47:38.071Z,9.60
2023-01-13T12:50:26.508Z,10.10
2023-01-13T12:52:57.660Z,9.40
2023-01-13T12:55:33.909Z,10.10
2023-01-13T12:58:06.786Z,10.50
2023-01-13T13:00:41.713Z,9.80
2023-01-13T13:03:12.376Z,9.60
2023-01-13T13:05:48.887Z,9.90
2023-01-13T13:08:34.989Z,9.90
2023-01-13T13:11:33.826Z,10.50
2023-01-13T13:14:01.178Z,9.40
2023-01-13T13:16:29.550Z,10.10
2023-01-13T13:19:18.204Z,10.10
2023-01-13T13:22:17.969Z,9.60
2023-01-13T13:24:50.925Z,10.20
2023-01-13T13:27:18.386Z,10.70
2023-01-13T13:30:02.223Z,10.30
2023-01-13T13:32:52.509Z,10.20
2023-01-13T13:35:25.204Z,10.30
2023-01-13T13:38:31.548Z,11.00
2023-01-13T13:41:17.135Z,10.40
2023-01-13T13:44:03.874Z,11.50
2023-01-13T13:46:46.973Z,10.60
2023-01-13T13:49:17.219Z,11.40
2023-01-13T13:51:46.691Z,11.30
2023-01-13T13:54:16.429Z,10.90
2023-01-13T13:56:44.366Z,10.80
2023-01-13T18:06:59.340Z,10.00
2023-01-13T18:09:26.758Z,11.60
2023-01-13T18:11:53.657Z,11.70
2023-01-13T18:14:22.482Z,12.60
2023-01-13T18:16:49.424Z,12.40
2023-01-13T18:19:34.964Z,12.40
2023-01-13T18:22:20.110Z,12.60
2023-01-13T18:25:05.545Z,11.70
2023-01-13T18:27:34.492Z,12.00
2023-01-13T18:30:01.544Z,12.20
2023-01-13T18:32:32.921Z,12.10
2023-01-13T18:35:06.734Z,11.70
2023-01-13T18:37:36.160Z,12.20
2023-01-13T18:40:04.030Z,12.10
2023-01-13T18:42:49.678Z,11.80
2023-01-13T18:45:16.596Z,12.90
2023-01-13T18:47:43.436Z,11.40
2023-01-13T18:50:12.538Z,12.20
2023-01-13T18:52:39.397Z,13.50
2023-01-13T18:55:06.104Z,12.30
2023-01-13T18:57:33.419Z,13.20
2023-01-13T19:00:01.066Z,13.70
2023-01-13T19:02:30.040Z,13.90
2023-01-13T19:04:57.575Z,13.80
2023-01-13T19:07:28.362Z,13.30
2023-01-13T19:09:56.032Z,13.70
2023-01-13T19:12:26.284Z,13.40
2023-01-13T19:14:54.429Z,13.20
2023-01-13T19:17:21.794Z,13.30
2023-01-13T19:19:53.899Z,13.20
2023-01-13T19:22:24.118Z,12.90
2023-01-13T19:24:50.830Z,13.30
2023-01-13T19:27:18.139Z,12.00
2023-01-13T19:29:48.620Z,12.60
2023-01-13T19:32:20.499Z,12.90
2023-01-13T19:34:49.284Z,12.90
2023-01-13T19:37:16.004Z,12.70
2023-01-13T19:39:42.979Z,12.10
2023-01-13T19:42:30.091Z,12.10
2023-01-13T19:45:16.253Z,12.60
2023-01-13T19:47:45.384Z,12.40
2023-01-13T19:50:12.268Z,12.80
2023-01-13T19:52:38.971Z,12.00
2023-01-13T19:55:06.278Z,12.90
2023-01-13T19:57:32.959Z,12.50
2023-01-13T19:59:59.588Z,12.90
2023-01-13T20:02:31.435Z,11.40
2023-01-13T20:05:00.022Z,12.70
2023-01-13T20:07:28.101Z,12.10
2023-01-13T20:09:56.481Z,12.30
2023-01-13T20:12:24.246Z,11.80
2023-01-13T20:14:51.194Z,12.50
2023-01-13T20:17:19.255Z,12.90
2023-01-13T20:19:46.006Z,12.70
2023-01-13T20:22:12.738Z,12.80
2023-01-13T20:24:39.436Z,12.60
2023-01-13T20:27:06.459Z,12.50
2023-01-13T20:29:33.263Z,11.80
2023-01-13T20:32:00.117Z,12.40
2023-01-13T20:34:26.773Z,12.70
2023-01-13T20:36:53.417Z,12.20
2023-01-13T20:39:22.099Z,12.30
2023-01-13T20:42:07.695Z,12.70
2023-01-13T20:44:34.361Z,13.20
2023-01-13T20:47:01.116Z,12.30
2023-01-13T20:49:27.889Z,12.80
2023-01-13T20:51:54.914Z,13.00
2023-01-13T20:54:21.934Z,12.70
2023-01-13T20:56:48.907Z,12.50
2023-01-13T20:59:15.882Z,13.10
2023-01-13T21:01:42.697Z,12.60
2023-01-13T21:04:09.809Z,13.10
2023-01-13T21:06:36.566Z,13.00
2023-01-13T21:09:03.506Z,12.70
2023-01-13T21:11:49.038Z,13.40
2023-01-13T21:14:36.204Z,12.70
2023-01-13T21:17:02.860Z,12.80
2023-01-13T21:19:29.636Z,12.70
2023-01-13T21:21:56.680Z,13.40
2023-01-13T21:24:24.323Z,13.90
2023-01-13T21:26:58.967Z,14.00
2023-01-13T21:29:25.587Z,14.30
2023-01-13T21:31:54.067Z,13.20
2023-01-13T21:34:20.802Z,13.80
2023-01-13T21:36:47.436Z,14.40
2023-01-13T21:39:16.017Z,13.50
2023-01-13T21:42:01.480Z,14.20
2023-01-13T21:44:47.076Z,13.90
